KTNU/TNU METAR and TAF weather

Enter ICAO airport designator
Station Type Date Time Source
KTNU METAR 2019/08/26 07:35 UTC NOAA

KTNU 260735Z AUTO 09004KT 10SM OVC009 17/17 A2982 RMK AO2 PWINO


Station Type Date Time Source
KTNU Decoded METAR 2019/08/26 07:35 UTC NOAA

Station name not available
Aug 26, 2019 - 03:35 AM EDT / 2019.08.26 0735 UTC
Wind: from the E (090 degrees) at 5 MPH (4 KT):0
Visibility: 10 mile(s):0
Sky conditions: overcast
Temperature: 62 F (17 C)
Dew Point: 62 F (17 C)
Relative Humidity: 100%
Pressure (altimeter): 29.82 in. Hg (1009 hPa)
ob: KTNU 260735Z AUTO 09004KT 10SM OVC009 17/17 A2982 RMK AO2 PWINO
cycle: 7

Station Type Date Time Source
KTNU TAF UTC NOAA

Error!

Example: see airport list